sensor_id;sensor_type;location;lat;lon;timestamp;temperature;humidity
19892;DHT22;10108;50.142;8.724;2022-12-18T00:02:00;-3.80;99.90
19892;DHT22;10108;50.142;8.724;2022-12-18T00:04:27;-3.70;99.90
19892;DHT22;10108;50.142;8.724;2022-12-18T00:06:53;-3.40;99.90
19892;DHT22;10108;50.142;8.724;2022-12-18T00:09:20;-3.20;99.90
19892;DHT22;10108;50.142;8.724;2022-12-18T00:11:46;-3.10;99.90
19892;DHT22;10108;50.142;8.724;2022-12-18T00:14:13;-3.10;99.90
19892;DHT22;10108;50.142;8.724;2022-12-18T00:16:39;-3.10;99.90
19892;DHT22;10108;50.142;8.724;2022-12-18T00:19:06;-3.10;99.90
19892;DHT22;10108;50.142;8.724;2022-12-18T00:21:33;-3.10;99.90
19892;DHT22;10108;50.142;8.724;2022-12-18T00:24:00;-3.00;99.90
19892;DHT22;10108;50.142;8.724;2022-12-18T00:26:29;-3.00;99.90
19892;DHT22;10108;50.142;8.724;2022-12-18T00:29:00;-3.00;99.90
19892;DHT22;10108;50.142;8.724;2022-12-18T00:31:26;-2.90;99.90
19892;DHT22;10108;50.142;8.724;2022-12-18T00:33:57;-2.80;99.90
19892;DHT22;10108;50.142;8.724;2022-12-18T00:36:27;-2.90;99.90
19892;DHT22;10108;50.142;8.724;2022-12-18T00:38:55;-2.90;99.90
19892;DHT22;10108;50.142;8.724;2022-12-18T00:41:22;-2.90;99.90
19892;DHT22;10108;50.142;8.724;2022-12-18T00:44:09;-3.10;99.90
19892;DHT22;10108;50.142;8.724;2022-12-18T00:46:35;-3.10;99.90
19892;DHT22;10108;50.142;8.724;2022-12-18T00:49:02;-3.20;99.90
19892;DHT22;10108;50.142;8.724;2022-12-18T00:51:28;-3.10;99.90
19892;DHT22;10108;50.142;8.724;2022-12-18T00:53:54;-3.10;99.90
19892;DHT22;10108;50.142;8.724;2022-12-18T00:56:22;-3.20;99.90
19892;DHT22;10108;50.142;8.724;2022-12-18T00:58:48;-3.30;99.90
19892;DHT22;10108;50.142;8.724;2022-12-18T01:01:15;-3.40;99.90
19892;DHT22;10108;50.142;8.724;2022-12-18T01:03:41;-3.50;99.90
19892;DHT22;10108;50.142;8.724;2022-12-18T01:06:09;-3.50;99.90
19892;DHT22;10108;50.142;8.724;2022-12-18T01:08:35;-3.60;99.90
19892;DHT22;10108;50.142;8.724;2022-12-18T01:11:11;-3.70;99.90
19892;DHT22;10108;50.142;8.724;2022-12-18T01:13:38;-3.70;99.90
19892;DHT22;10108;50.142;8.724;2022-12-18T01:16:05;-3.70;99.90
19892;DHT22;10108;50.142;8.724;2022-12-18T01:18:34;-3.80;99.90
19892;DHT22;10108;50.142;8.724;2022-12-18T01:21:04;-3.80;99.90
19892;DHT22;10108;50.142;8.724;2022-12-18T01:23:31;-3.80;99.90
19892;DHT22;10108;50.142;8.724;2022-12-18T01:25:57;-3.80;99.90
19892;DHT22;10108;50.142;8.724;2022-12-18T01:28:23;-3.70;99.90
19892;DHT22;10108;50.142;8.724;2022-12-18T01:30:50;-3.70;99.90
19892;DHT22;10108;50.142;8.724;2022-12-18T01:33:16;-3.70;99.90
19892;DHT22;10108;50.142;8.724;2022-12-18T01:35:42;-3.60;99.90
19892;DHT22;10108;50.142;8.724;2022-12-18T01:38:09;-3.50;99.90
19892;DHT22;10108;50.142;8.724;2022-12-18T01:40:35;-3.50;99.90
19892;DHT22;10108;50.142;8.724;2022-12-18T01:43:02;-3.60;99.90
19892;DHT22;10108;50.142;8.724;2022-12-18T01:45:31;-3.70;99.90
19892;DHT22;10108;50.142;8.724;2022-12-18T01:48:06;-3.80;99.90
19892;DHT22;10108;50.142;8.724;2022-12-18T01:50:40;-3.90;99.90
19892;DHT22;10108;50.142;8.724;2022-12-18T01:53:13;-3.80;99.90
19892;DHT22;10108;50.142;8.724;2022-12-18T01:55:46;-3.80;99.90
19892;DHT22;10108;50.142;8.724;2022-12-18T01:58:13;-3.90;99.90
19892;DHT22;10108;50.142;8.724;2022-12-18T02:00:40;-3.90;99.90
19892;DHT22;10108;50.142;8.724;2022-12-18T02:03:06;-3.80;99.90
19892;DHT22;10108;50.142;8.724;2022-12-18T02:06:05;-3.80;99.90
19892;DHT22;10108;50.142;8.724;2022-12-18T02:08:34;-3.70;99.90
19892;DHT22;10108;50.142;8.724;2022-12-18T02:11:31;-3.60;99.90
19892;DHT22;10108;50.142;8.724;2022-12-18T02:17:06;-3.60;99.90
19892;DHT22;10108;50.142;8.724;2022-12-18T02:27:49;-3.60;99.90
19892;DHT22;10108;50.142;8.724;2022-12-18T02:30:17;-3.60;99.90
19892;DHT22;10108;50.142;8.724;2022-12-18T02:32:48;-3.40;99.90
19892;DHT22;10108;50.142;8.724;2022-12-18T02:35:27;-3.30;99.90
19892;DHT22;10108;50.142;8.724;2022-12-18T02:37:57;-3.20;99.90
19892;DHT22;10108;50.142;8.724;2022-12-18T02:40:26;-3.00;99.90
19892;DHT22;10108;50.142;8.724;2022-12-18T02:42:53;-2.90;99.90
19892;DHT22;10108;50.142;8.724;2022-12-18T02:45:20;-3.00;99.90
19892;DHT22;10108;50.142;8.724;2022-12-18T02:47:49;-2.90;99.90
19892;DHT22;10108;50.142;8.724;2022-12-18T02:50:35;-2.90;99.90
19892;DHT22;10108;50.142;8.724;2022-12-18T02:53:28;-2.90;99.90
19892;DHT22;10108;50.142;8.724;2022-12-18T02:56:09;-3.10;99.90
19892;DHT22;10108;50.142;8.724;2022-12-18T03:04:00;-3.00;99.90
19892;DHT22;10108;50.142;8.724;2022-12-18T03:06:32;-2.90;99.90
19892;DHT22;10108;50.142;8.724;2022-12-18T03:09:02;-2.90;99.90
19892;DHT22;10108;50.142;8.724;2022-12-18T03:11:33;-2.80;99.90
19892;DHT22;10108;50.142;8.724;2022-12-18T03:14:20;-2.90;99.90
19892;DHT22;10108;50.142;8.724;2022-12-18T03:16:50;-3.10;99.90
19892;DHT22;10108;50.142;8.724;2022-12-18T03:19:21;-3.10;99.90
19892;DHT22;10108;50.142;8.724;2022-12-18T03:21:54;-3.20;99.90
19892;DHT22;10108;50.142;8.724;2022-12-18T03:24:24;-3.20;99.90
19892;DHT22;10108;50.142;8.724;2022-12-18T03:26:58;-3.10;99.90
19892;DHT22;10108;50.142;8.724;2022-12-18T03:29:33;-3.00;99.90
19892;DHT22;10108;50.142;8.724;2022-12-18T03:32:05;-2.90;99.90
19892;DHT22;10108;50.142;8.724;2022-12-18T03:34:36;-2.90;99.90
19892;DHT22;10108;50.142;8.724;2022-12-18T03:37:06;-2.90;99.90
19892;DHT22;10108;50.142;8.724;2022-12-18T03:39:34;-2.90;99.90
19892;DHT22;10108;50.142;8.724;2022-12-18T03:42:17;-3.00;99.90
19892;DHT22;10108;50.142;8.724;2022-12-18T03:45:01;-3.20;99.90
19892;DHT22;10108;50.142;8.724;2022-12-18T03:47:36;-3.30;99.90
19892;DHT22;10108;50.142;8.724;2022-12-18T03:50:11;-3.50;99.90
19892;DHT22;10108;50.142;8.724;2022-12-18T03:52:49;-3.60;99.90
19892;DHT22;10108;50.142;8.724;2022-12-18T03:55:18;-3.60;99.90
19892;DHT22;10108;50.142;8.724;2022-12-18T03:57:48;-3.60;99.90
19892;DHT22;10108;50.142;8.724;2022-12-18T04:00:17;-3.60;99.90
19892;DHT22;10108;50.142;8.724;2022-12-18T04:03:02;-3.50;99.90
19892;DHT22;10108;50.142;8.724;2022-12-18T04:05:37;-3.40;99.90
19892;DHT22;10108;50.142;8.724;2022-12-18T04:08:05;-3.30;99.90
19892;DHT22;10108;50.142;8.724;2022-12-18T04:10:36;-3.20;99.90
19892;DHT22;10108;50.142;8.724;2022-12-18T04:13:02;-3.10;99.90
19892;DHT22;10108;50.142;8.724;2022-12-18T04:15:29;-3.10;99.90
19892;DHT22;10108;50.142;8.724;2022-12-18T04:17:57;-3.20;99.90
19892;DHT22;10108;50.142;8.724;2022-12-18T04:20:25;-3.30;99.90
19892;DHT22;10108;50.142;8.724;2022-12-18T04:22:53;-3.40;99.90
19892;DHT22;10108;50.142;8.724;2022-12-18T04:25:20;-3.40;99.90
19892;DHT22;10108;50.142;8.724;2022-12-18T04:28:03;-3.30;99.90
19892;DHT22;10108;50.142;8.724;2022-12-18T04:30:29;-3.30;99.90
19892;DHT22;10108;50.142;8.724;2022-12-18T04:32:55;-3.20;99.90
19892;DHT22;10108;50.142;8.724;2022-12-18T04:35:22;-3.30;99.90
19892;DHT22;10108;50.142;8.724;2022-12-18T04:37:49;-3.30;99.90
19892;DHT22;10108;50.142;8.724;2022-12-18T04:40:15;-3.40;99.90
19892;DHT22;10108;50.142;8.724;2022-12-18T04:42:45;-3.60;99.90
19892;DHT22;10108;50.142;8.724;2022-12-18T04:45:11;-3.70;99.90
19892;DHT22;10108;50.142;8.724;2022-12-18T04:47:37;-3.80;99.90
19892;DHT22;10108;50.142;8.724;2022-12-18T04:52:31;-4.00;99.90
19892;DHT22;10108;50.142;8.724;2022-12-18T04:54:57;-4.00;99.90
19892;DHT22;10108;50.142;8.724;2022-12-18T04:57:23;-4.00;99.90
19892;DHT22;10108;50.142;8.724;2022-12-18T04:59:49;-3.90;99.90
19892;DHT22;10108;50.142;8.724;2022-12-18T05:02:15;-3.70;99.90
19892;DHT22;10108;50.142;8.724;2022-12-18T05:04:41;-3.50;99.90
19892;DHT22;10108;50.142;8.724;2022-12-18T05:07:07;-3.40;99.90
19892;DHT22;10108;50.142;8.724;2022-12-18T05:09:34;-3.40;99.90
19892;DHT22;10108;50.142;8.724;2022-12-18T05:12:00;-3.50;99.90
19892;DHT22;10108;50.142;8.724;2022-12-18T05:14:26;-3.60;99.90
19892;DHT22;10108;50.142;8.724;2022-12-18T05:16:53;-3.70;99.90
19892;DHT22;10108;50.142;8.724;2022-12-18T05:19:19;-3.80;99.90
19892;DHT22;10108;50.142;8.724;2022-12-18T05:21:45;-3.90;99.90
19892;DHT22;10108;50.142;8.724;2022-12-18T05:24:11;-3.90;99.90
19892;DHT22;10108;50.142;8.724;2022-12-18T05:26:37;-4.00;99.90
19892;DHT22;10108;50.142;8.724;2022-12-18T05:29:04;-4.00;99.90
19892;DHT22;10108;50.142;8.724;2022-12-18T05:31:30;-4.00;99.90
19892;DHT22;10108;50.142;8.724;2022-12-18T05:33:56;-4.00;99.90
19892;DHT22;10108;50.142;8.724;2022-12-18T05:36:22;-3.90;99.90
19892;DHT22;10108;50.142;8.724;2022-12-18T05:38:49;-3.90;99.90
19892;DHT22;10108;50.142;8.724;2022-12-18T05:41:15;-4.00;99.90
19892;DHT22;10108;50.142;8.724;2022-12-18T05:43:41;-4.10;99.90
19892;DHT22;10108;50.142;8.724;2022-12-18T05:46:11;-4.20;99.90
19892;DHT22;10108;50.142;8.724;2022-12-18T05:48:38;-4.20;99.90
19892;DHT22;10108;50.142;8.724;2022-12-18T05:51:06;-4.30;99.90
19892;DHT22;10108;50.142;8.724;2022-12-18T05:56:02;-4.20;99.90
19892;DHT22;10108;50.142;8.724;2022-12-18T05:58:28;-4.10;99.90
19892;DHT22;10108;50.142;8.724;2022-12-18T06:00:55;-3.80;99.90
19892;DHT22;10108;50.142;8.724;2022-12-18T06:03:21;-3.60;99.90
19892;DHT22;10108;50.142;8.724;2022-12-18T06:05:47;-3.60;99.90
19892;DHT22;10108;50.142;8.724;2022-12-18T06:08:13;-3.70;99.90
19892;DHT22;10108;50.142;8.724;2022-12-18T06:10:40;-3.80;99.90
19892;DHT22;10108;50.142;8.724;2022-12-18T06:13:07;-4.00;99.90
19892;DHT22;10108;50.142;8.724;2022-12-18T06:15:36;-4.10;99.90
19892;DHT22;10108;50.142;8.724;2022-12-18T06:18:03;-4.30;99.90
19892;DHT22;10108;50.142;8.724;2022-12-18T06:20:30;-4.30;99.90
19892;DHT22;10108;50.142;8.724;2022-12-18T06:22:56;-4.10;99.90
19892;DHT22;10108;50.142;8.724;2022-12-18T06:25:22;-3.90;99.90
19892;DHT22;10108;50.142;8.724;2022-12-18T06:27:48;-3.90;99.90
19892;DHT22;10108;50.142;8.724;2022-12-18T06:30:15;-3.80;99.90
19892;DHT22;10108;50.142;8.724;2022-12-18T06:32:41;-3.70;99.90
19892;DHT22;10108;50.142;8.724;2022-12-18T06:35:07;-3.70;99.90
19892;DHT22;10108;50.142;8.724;2022-12-18T06:37:33;-3.70;99.90
19892;DHT22;10108;50.142;8.724;2022-12-18T06:39:59;-3.80;99.90
19892;DHT22;10108;50.142;8.724;2022-12-18T06:42:26;-3.90;99.90
19892;DHT22;10108;50.142;8.724;2022-12-18T06:44:54;-4.00;99.90
19892;DHT22;10108;50.142;8.724;2022-12-18T06:47:20;-4.10;99.90
19892;DHT22;10108;50.142;8.724;2022-12-18T06:49:46;-4.10;99.90
19892;DHT22;10108;50.142;8.724;2022-12-18T06:52:12;-4.10;99.90
19892;DHT22;10108;50.142;8.724;2022-12-18T06:54:38;-4.10;99.90
19892;DHT22;10108;50.142;8.724;2022-12-18T06:57:04;-4.10;99.90
19892;DHT22;10108;50.142;8.724;2022-12-18T06:59:30;-4.10;99.90
19892;DHT22;10108;50.142;8.724;2022-12-18T07:01:56;-4.20;99.90
19892;DHT22;10108;50.142;8.724;2022-12-18T07:04:30;-4.20;99.90
19892;DHT22;10108;50.142;8.724;2022-12-18T07:06:56;-4.30;99.90
19892;DHT22;10108;50.142;8.724;2022-12-18T07:09:24;-4.40;99.90
19892;DHT22;10108;50.142;8.724;2022-12-18T07:11:50;-4.30;99.90
19892;DHT22;10108;50.142;8.724;2022-12-18T07:14:16;-4.30;99.90
19892;DHT22;10108;50.142;8.724;2022-12-18T07:16:42;-4.30;99.90
19892;DHT22;10108;50.142;8.724;2022-12-18T07:19:08;-4.40;99.90
19892;DHT22;10108;50.142;8.724;2022-12-18T07:21:34;-4.40;99.90
19892;DHT22;10108;50.142;8.724;2022-12-18T07:24:00;-4.40;99.90
19892;DHT22;10108;50.142;8.724;2022-12-18T07:26:26;-4.20;99.90
19892;DHT22;10108;50.142;8.724;2022-12-18T07:28:55;-4.10;99.90
19892;DHT22;10108;50.142;8.724;2022-12-18T07:31:24;-4.00;99.90
19892;DHT22;10108;50.142;8.724;2022-12-18T07:33:51;-3.90;99.90
19892;DHT22;10108;50.142;8.724;2022-12-18T07:36:18;-3.90;99.90
19892;DHT22;10108;50.142;8.724;2022-12-18T07:38:46;-4.00;99.90
19892;DHT22;10108;50.142;8.724;2022-12-18T07:41:13;-4.00;99.90
19892;DHT22;10108;50.142;8.724;2022-12-18T07:43:40;-4.10;99.90
19892;DHT22;10108;50.142;8.724;2022-12-18T07:46:08;-4.20;99.90
19892;DHT22;10108;50.142;8.724;2022-12-18T07:48:34;-4.20;99.90
19892;DHT22;10108;50.142;8.724;2022-12-18T07:51:02;-4.30;99.90
19892;DHT22;10108;50.142;8.724;2022-12-18T07:53:30;-4.20;99.90
19892;DHT22;10108;50.142;8.724;2022-12-18T07:55:58;-4.20;99.90
19892;DHT22;10108;50.142;8.724;2022-12-18T07:58:24;-4.20;99.90
19892;DHT22;10108;50.142;8.724;2022-12-18T08:00:51;-4.20;99.90
19892;DHT22;10108;50.142;8.724;2022-12-18T08:03:18;-4.30;99.90
19892;DHT22;10108;50.142;8.724;2022-12-18T08:05:44;-4.30;99.90
19892;DHT22;10108;50.142;8.724;2022-12-18T08:08:11;-4.30;99.90
19892;DHT22;10108;50.142;8.724;2022-12-18T08:10:37;-4.20;99.90
19892;DHT22;10108;50.142;8.724;2022-12-18T08:13:04;-4.20;99.90
19892;DHT22;10108;50.142;8.724;2022-12-18T08:15:30;-4.20;99.90
19892;DHT22;10108;50.142;8.724;2022-12-18T08:17:57;-4.10;99.90
19892;DHT22;10108;50.142;8.724;2022-12-18T08:20:23;-4.10;99.90
19892;DHT22;10108;50.142;8.724;2022-12-18T08:22:49;-4.10;99.90
19892;DHT22;10108;50.142;8.724;2022-12-18T08:25:15;-4.00;99.90
19892;DHT22;10108;50.142;8.724;2022-12-18T08:27:41;-4.00;99.90
19892;DHT22;10108;50.142;8.724;2022-12-18T08:30:08;-4.00;99.90
19892;DHT22;10108;50.142;8.724;2022-12-18T08:32:34;-4.00;99.90
19892;DHT22;10108;50.142;8.724;2022-12-18T08:35:00;-4.00;99.90
19892;DHT22;10108;50.142;8.724;2022-12-18T08:37:26;-4.00;99.90
19892;DHT22;10108;50.142;8.724;2022-12-18T08:39:52;-3.90;99.90
19892;DHT22;10108;50.142;8.724;2022-12-18T08:42:18;-3.90;99.90
19892;DHT22;10108;50.142;8.724;2022-12-18T08:45:04;-3.90;99.90
19892;DHT22;10108;50.142;8.724;2022-12-18T08:47:30;-3.80;99.90
19892;DHT22;10108;50.142;8.724;2022-12-18T08:49:56;-3.80;99.90
19892;DHT22;10108;50.142;8.724;2022-12-18T08:52:22;-3.60;99.90
19892;DHT22;10108;50.142;8.724;2022-12-18T08:54:48;-3.40;99.90
19892;DHT22;10108;50.142;8.724;2022-12-18T08:57:14;-3.30;99.90
19892;DHT22;10108;50.142;8.724;2022-12-18T08:59:40;-3.20;99.90
19892;DHT22;10108;50.142;8.724;2022-12-18T09:02:09;-3.10;99.90
19892;DHT22;10108;50.142;8.724;2022-12-18T09:04:36;-3.10;99.90
19892;DHT22;10108;50.142;8.724;2022-12-18T09:07:02;-3.10;99.90
19892;DHT22;10108;50.142;8.724;2022-12-18T09:09:28;-3.10;99.90
19892;DHT22;10108;50.142;8.724;2022-12-18T09:11:54;-3.10;99.90
19892;DHT22;10108;50.142;8.724;2022-12-18T09:14:20;-3.20;99.90
19892;DHT22;10108;50.142;8.724;2022-12-18T09:16:46;-3.10;99.90
19892;DHT22;10108;50.142;8.724;2022-12-18T09:19:12;-3.10;99.90
19892;DHT22;10108;50.142;8.724;2022-12-18T09:21:39;-3.00;99.90
19892;DHT22;10108;50.142;8.724;2022-12-18T09:24:05;-3.00;99.90
19892;DHT22;10108;50.142;8.724;2022-12-18T09:26:31;-3.00;99.90
19892;DHT22;10108;50.142;8.724;2022-12-18T09:28:57;-2.90;99.90
19892;DHT22;10108;50.142;8.724;2022-12-18T09:31:24;-2.90;99.90
19892;DHT22;10108;50.142;8.724;2022-12-18T09:33:51;-2.90;99.90
19892;DHT22;10108;50.142;8.724;2022-12-18T09:36:17;-2.80;99.90
19892;DHT22;10108;50.142;8.724;2022-12-18T09:38:44;-2.80;99.90
19892;DHT22;10108;50.142;8.724;2022-12-18T09:47:15;-2.70;99.90
19892;DHT22;10108;50.142;8.724;2022-12-18T09:49:45;-2.70;99.90
19892;DHT22;10108;50.142;8.724;2022-12-18T09:52:27;-2.70;99.90
19892;DHT22;10108;50.142;8.724;2022-12-18T09:55:00;-2.60;99.90
19892;DHT22;10108;50.142;8.724;2022-12-18T09:57:29;-2.60;99.90
19892;DHT22;10108;50.142;8.724;2022-12-18T10:00:19;-2.60;99.90
19892;DHT22;10108;50.142;8.724;2022-12-18T10:02:47;-2.60;99.90
19892;DHT22;10108;50.142;8.724;2022-12-18T10:05:20;-2.60;99.90
19892;DHT22;10108;50.142;8.724;2022-12-18T10:10:39;-2.50;99.90
19892;DHT22;10108;50.142;8.724;2022-12-18T10:13:11;-2.50;99.90
19892;DHT22;10108;50.142;8.724;2022-12-18T10:15:47;-2.40;99.90
19892;DHT22;10108;50.142;8.724;2022-12-18T10:21:19;-2.30;99.90
19892;DHT22;10108;50.142;8.724;2022-12-18T10:24:02;-2.30;99.90
19892;DHT22;10108;50.142;8.724;2022-12-18T10:26:34;-2.20;99.90
19892;DHT22;10108;50.142;8.724;2022-12-18T10:29:00;-2.30;99.90
19892;DHT22;10108;50.142;8.724;2022-12-18T10:31:27;-2.20;99.90
19892;DHT22;10108;50.142;8.724;2022-12-18T10:33:54;-2.10;99.90
19892;DHT22;10108;50.142;8.724;2022-12-18T10:36:20;-2.20;99.90
19892;DHT22;10108;50.142;8.724;2022-12-18T10:38:46;-2.20;99.90
19892;DHT22;10108;50.142;8.724;2022-12-18T10:43:45;-2.20;99.90
19892;DHT22;10108;50.142;8.724;2022-12-18T10:51:28;-2.00;99.90
19892;DHT22;10108;50.142;8.724;2022-12-18T10:54:04;-2.00;99.90
19892;DHT22;10108;50.142;8.724;2022-12-18T10:56:33;-2.00;99.90
19892;DHT22;10108;50.142;8.724;2022-12-18T10:59:03;-2.00;99.90
19892;DHT22;10108;50.142;8.724;2022-12-18T11:02:07;-1.90;99.90
19892;DHT22;10108;50.142;8.724;2022-12-18T11:04:51;-1.90;99.90
19892;DHT22;10108;50.142;8.724;2022-12-18T11:07:17;-1.90;99.90
19892;DHT22;10108;50.142;8.724;2022-12-18T11:09:44;-1.80;99.90
19892;DHT22;10108;50.142;8.724;2022-12-18T11:12:24;-1.80;99.90
19892;DHT22;10108;50.142;8.724;2022-12-18T11:14:53;-1.80;99.90
19892;DHT22;10108;50.142;8.724;2022-12-18T11:17:34;-1.70;99.90
19892;DHT22;10108;50.142;8.724;2022-12-18T11:20:04;-1.80;99.90
19892;DHT22;10108;50.142;8.724;2022-12-18T11:22:35;-1.80;99.90
19892;DHT22;10108;50.142;8.724;2022-12-18T11:27:40;-1.70;99.90
19892;DHT22;10108;50.142;8.724;2022-12-18T11:30:35;-1.60;99.90
19892;DHT22;10108;50.142;8.724;2022-12-18T11:33:03;-1.60;99.90
19892;DHT22;10108;50.142;8.724;2022-12-18T11:35:48;-1.60;99.90
19892;DHT22;10108;50.142;8.724;2022-12-18T11:38:24;-1.60;99.90
19892;DHT22;10108;50.142;8.724;2022-12-18T11:43:37;-1.60;99.90
19892;DHT22;10108;50.142;8.724;2022-12-18T11:46:14;-1.60;99.90
19892;DHT22;10108;50.142;8.724;2022-12-18T11:48:53;-1.60;99.90
19892;DHT22;10108;50.142;8.724;2022-12-18T11:51:28;-1.60;99.90
19892;DHT22;10108;50.142;8.724;2022-12-18T11:53:55;-1.50;99.90
19892;DHT22;10108;50.142;8.724;2022-12-18T12:05:28;-1.30;99.90
19892;DHT22;10108;50.142;8.724;2022-12-18T12:08:09;-1.20;99.90
19892;DHT22;10108;50.142;8.724;2022-12-18T12:13:22;-1.20;99.90
19892;DHT22;10108;50.142;8.724;2022-12-18T12:21:38;-1.30;99.90
19892;DHT22;10108;50.142;8.724;2022-12-18T12:24:24;-1.30;99.90
19892;DHT22;10108;50.142;8.724;2022-12-18T12:30:13;-1.30;99.90
19892;DHT22;10108;50.142;8.724;2022-12-18T12:33:04;-1.30;99.90
19892;DHT22;10108;50.142;8.724;2022-12-18T12:35:46;-1.20;99.90
19892;DHT22;10108;50.142;8.724;2022-12-18T12:40:51;-1.20;99.90
19892;DHT22;10108;50.142;8.724;2022-12-18T12:43:31;-1.20;99.90
19892;DHT22;10108;50.142;8.724;2022-12-18T12:46:08;-1.20;99.90
19892;DHT22;10108;50.142;8.724;2022-12-18T12:48:42;-1.20;99.90
19892;DHT22;10108;50.142;8.724;2022-12-18T12:51:30;-1.20;99.90
19892;DHT22;10108;50.142;8.724;2022-12-18T12:53:59;-1.20;99.90
19892;DHT22;10108;50.142;8.724;2022-12-18T12:56:38;-1.20;99.90
19892;DHT22;10108;50.142;8.724;2022-12-18T12:59:30;-1.20;99.90
19892;DHT22;10108;50.142;8.724;2022-12-18T13:02:14;-1.20;99.90
19892;DHT22;10108;50.142;8.724;2022-12-18T13:05:00;-1.10;99.90
19892;DHT22;10108;50.142;8.724;2022-12-18T13:07:34;-1.10;99.90
19892;DHT22;10108;50.142;8.724;2022-12-18T13:18:11;-1.00;99.90
19892;DHT22;10108;50.142;8.724;2022-12-18T13:20:42;-1.00;99.90
19892;DHT22;10108;50.142;8.724;2022-12-18T13:33:41;-1.00;99.90
19892;DHT22;10108;50.142;8.724;2022-12-18T13:36:23;-0.90;99.90
19892;DHT22;10108;50.142;8.724;2022-12-18T13:41:41;-0.90;99.90
19892;DHT22;10108;50.142;8.724;2022-12-18T13:46:58;-0.80;99.90
19892;DHT22;10108;50.142;8.724;2022-12-18T13:49:38;-0.80;99.90
19892;DHT22;10108;50.142;8.724;2022-12-18T13:52:21;-0.80;99.90
19892;DHT22;10108;50.142;8.724;2022-12-18T13:54:51;-0.80;99.90
19892;DHT22;10108;50.142;8.724;2022-12-18T13:57:33;-0.80;99.90
19892;DHT22;10108;50.142;8.724;2022-12-18T14:00:25;-0.80;99.90
19892;DHT22;10108;50.142;8.724;2022-12-18T14:02:52;-0.90;99.90
19892;DHT22;10108;50.142;8.724;2022-12-18T14:05:32;-0.90;99.90
19892;DHT22;10108;50.142;8.724;2022-12-18T14:08:03;-0.90;99.90
19892;DHT22;10108;50.142;8.724;2022-12-18T14:10:31;-0.90;99.90
19892;DHT22;10108;50.142;8.724;2022-12-18T14:13:01;-0.90;99.90
19892;DHT22;10108;50.142;8.724;2022-12-18T14:15:43;-0.90;99.90
19892;DHT22;10108;50.142;8.724;2022-12-18T14:20:52;-0.90;99.90
19892;DHT22;10108;50.142;8.724;2022-12-18T14:23:33;-0.90;99.90
19892;DHT22;10108;50.142;8.724;2022-12-18T14:26:02;-0.90;99.90
19892;DHT22;10108;50.142;8.724;2022-12-18T14:28:29;-0.90;99.90
19892;DHT22;10108;50.142;8.724;2022-12-18T14:30:55;-0.90;99.90
19892;DHT22;10108;50.142;8.724;2022-12-18T14:33:24;-0.90;99.90
19892;DHT22;10108;50.142;8.724;2022-12-18T14:36:02;-0.90;99.90
19892;DHT22;10108;50.142;8.724;2022-12-18T14:38:32;-1.00;99.90
19892;DHT22;10108;50.142;8.724;2022-12-18T14:41:12;-0.90;99.90
19892;DHT22;10108;50.142;8.724;2022-12-18T14:43:41;-1.00;99.90
19892;DHT22;10108;50.142;8.724;2022-12-18T14:46:29;-1.00;99.90
19892;DHT22;10108;50.142;8.724;2022-12-18T14:48:57;-1.00;99.90
19892;DHT22;10108;50.142;8.724;2022-12-18T14:51:27;-1.00;99.90
19892;DHT22;10108;50.142;8.724;2022-12-18T14:54:03;-1.10;99.90
19892;DHT22;10108;50.142;8.724;2022-12-18T14:56:34;-1.10;99.90
19892;DHT22;10108;50.142;8.724;2022-12-18T14:59:21;-1.10;99.90
19892;DHT22;10108;50.142;8.724;2022-12-18T15:04:36;-1.10;99.90
19892;DHT22;10108;50.142;8.724;2022-12-18T15:09:37;-1.00;99.90
19892;DHT22;10108;50.142;8.724;2022-12-18T15:12:04;-1.00;99.90
19892;DHT22;10108;50.142;8.724;2022-12-18T15:16:58;-1.00;99.90
19892;DHT22;10108;50.142;8.724;2022-12-18T15:19:34;-1.00;99.90
19892;DHT22;10108;50.142;8.724;2022-12-18T15:22:01;-1.00;99.90
19892;DHT22;10108;50.142;8.724;2022-12-18T15:24:31;-1.10;99.90
19892;DHT22;10108;50.142;8.724;2022-12-18T15:26:58;-1.10;99.90
19892;DHT22;10108;50.142;8.724;2022-12-18T15:29:25;-1.10;99.90
19892;DHT22;10108;50.142;8.724;2022-12-18T15:32:03;-1.20;99.90
19892;DHT22;10108;50.142;8.724;2022-12-18T15:34:30;-1.20;99.90
19892;DHT22;10108;50.142;8.724;2022-12-18T15:36:57;-1.20;99.90
19892;DHT22;10108;50.142;8.724;2022-12-18T15:39:23;-1.20;99.90
19892;DHT22;10108;50.142;8.724;2022-12-18T15:41:49;-1.20;99.90
19892;DHT22;10108;50.142;8.724;2022-12-18T15:44:34;-1.20;99.90
19892;DHT22;10108;50.142;8.724;2022-12-18T15:47:01;-1.20;99.90
19892;DHT22;10108;50.142;8.724;2022-12-18T15:49:27;-1.20;99.90
19892;DHT22;10108;50.142;8.724;2022-12-18T15:51:56;-1.20;99.90
19892;DHT22;10108;50.142;8.724;2022-12-18T15:54:23;-1.30;99.90
19892;DHT22;10108;50.142;8.724;2022-12-18T15:57:12;-1.30;99.90
19892;DHT22;10108;50.142;8.724;2022-12-18T15:59:52;-1.30;99.90
19892;DHT22;10108;50.142;8.724;2022-12-18T16:02:19;-1.30;99.90
19892;DHT22;10108;50.142;8.724;2022-12-18T16:04:46;-1.30;99.90
19892;DHT22;10108;50.142;8.724;2022-12-18T16:07:12;-1.30;99.90
19892;DHT22;10108;50.142;8.724;2022-12-18T16:09:38;-1.30;99.90
19892;DHT22;10108;50.142;8.724;2022-12-18T16:12:19;-1.30;99.90
19892;DHT22;10108;50.142;8.724;2022-12-18T16:14:46;-1.30;99.90
19892;DHT22;10108;50.142;8.724;2022-12-18T16:17:13;-1.30;99.90
19892;DHT22;10108;50.142;8.724;2022-12-18T16:19:40;-1.30;99.90
19892;DHT22;10108;50.142;8.724;2022-12-18T16:22:19;-1.30;99.90
19892;DHT22;10108;50.142;8.724;2022-12-18T16:24:46;-1.30;99.90
19892;DHT22;10108;50.142;8.724;2022-12-18T16:27:12;-1.20;99.90
19892;DHT22;10108;50.142;8.724;2022-12-18T16:29:38;-1.10;99.90
19892;DHT22;10108;50.142;8.724;2022-12-18T16:32:04;-1.20;99.90
19892;DHT22;10108;50.142;8.724;2022-12-18T16:34:34;-1.20;99.90
19892;DHT22;10108;50.142;8.724;2022-12-18T16:37:05;-1.20;99.90
19892;DHT22;10108;50.142;8.724;2022-12-18T16:39:33;-1.20;99.90
19892;DHT22;10108;50.142;8.724;2022-12-18T16:42:01;-1.20;99.90
19892;DHT22;10108;50.142;8.724;2022-12-18T16:44:27;-1.20;99.90
19892;DHT22;10108;50.142;8.724;2022-12-18T16:46:54;-1.30;99.90
19892;DHT22;10108;50.142;8.724;2022-12-18T16:49:20;-1.30;99.90
19892;DHT22;10108;50.142;8.724;2022-12-18T16:51:47;-1.30;99.90
19892;DHT22;10108;50.142;8.724;2022-12-18T16:54:13;-1.30;99.90
19892;DHT22;10108;50.142;8.724;2022-12-18T16:56:40;-1.30;99.90
19892;DHT22;10108;50.142;8.724;2022-12-18T16:59:10;-1.30;99.90
19892;DHT22;10108;50.142;8.724;2022-12-18T17:01:37;-1.30;99.90
19892;DHT22;10108;50.142;8.724;2022-12-18T17:04:04;-1.40;99.90
19892;DHT22;10108;50.142;8.724;2022-12-18T17:06:33;-1.40;99.90
19892;DHT22;10108;50.142;8.724;2022-12-18T17:09:04;-1.40;99.90
19892;DHT22;10108;50.142;8.724;2022-12-18T17:11:32;-1.50;99.90
19892;DHT22;10108;50.142;8.724;2022-12-18T17:13:59;-1.50;99.90
19892;DHT22;10108;50.142;8.724;2022-12-18T17:16:30;-1.50;99.90
19892;DHT22;10108;50.142;8.724;2022-12-18T17:18:56;-1.50;99.90
19892;DHT22;10108;50.142;8.724;2022-12-18T17:21:22;-1.40;99.90
19892;DHT22;10108;50.142;8.724;2022-12-18T17:23:49;-1.40;99.90
19892;DHT22;10108;50.142;8.724;2022-12-18T17:26:15;-1.30;99.90
19892;DHT22;10108;50.142;8.724;2022-12-18T17:28:41;-1.30;99.90
19892;DHT22;10108;50.142;8.724;2022-12-18T17:31:17;-1.30;99.90
19892;DHT22;10108;50.142;8.724;2022-12-18T17:33:43;-1.30;99.90